Time;durP1;ratioP1;P1;durP2;ratioP2;P2;SDS_P1;SDS_P2;PMS_P1;PMS_P2;Temp;Humidity;BMP_temperature;BMP_pressure;BME280_temperature;BME280_humidity;BME280_pressure;Samples;Min_cycle;Max_cycle;Signal;HPM_P1;HPM_P2
2021/11/28 00:02:22;;;;;;;121.10;95.47;;;21.10;49.90;;;;;;4769064;55;21535;-33
2021/11/28 00:15:03;;;;;;;123.35;95.40;;;21.10;49.90;;;;;;4738256;59;21089;-25
2021/11/28 00:20:08;;;;;;;118.13;92.93;;;21.10;49.50;;;;;;4759650;55;21551;-33
2021/11/28 00:25:14;;;;;;;121.57;92.75;;;21.10;49.90;;;;;;4821589;55;21025;-27
2021/11/28 00:30:18;;;;;;;120.70;95.47;;;21.10;49.90;;;;;;4745476;55;21021;-22
2021/11/28 00:35:20;;;;;;;122.22;94.37;;;21.10;49.80;;;;;;4799892;55;21025;-26
2021/11/28 00:40:20;;;;;;;116.15;89.97;;;21.10;49.90;;;;;;4746770;55;21099;-32
2021/11/28 00:45:21;;;;;;;121.50;93.25;;;21.10;49.90;;;;;;4739167;59;22227;-29
2021/11/28 00:50:36;;;;;;;118.93;94.15;;;21.10;49.90;;;;;;4739241;59;21061;-28
2021/11/28 00:55:37;;;;;;;122.95;94.97;;;21.10;49.80;;;;;;4763494;55;21040;-31
2021/11/28 01:00:39;;;;;;;119.25;93.60;;;21.10;49.80;;;;;;4781185;55;21021;-30
2021/11/28 01:05:39;;;;;;;116.85;91.32;;;21.10;49.80;;;;;;4739567;59;21660;-30
2021/11/28 01:10:40;;;;;;;118.95;92.68;;;21.10;49.80;;;;;;4780460;55;21066;-30
2021/11/28 01:15:41;;;;;;;115.50;88.53;;;21.10;49.80;;;;;;4755386;55;21128;-31
2021/11/28 01:20:43;;;;;;;117.25;92.12;;;21.10;49.80;;;;;;4739498;56;21131;-29
2021/11/28 01:25:44;;;;;;;116.55;91.22;;;21.10;49.70;;;;;;4745452;55;21825;-28
2021/11/28 01:30:44;;;;;;;110.88;85.70;;;21.10;49.80;;;;;;4757042;55;21029;-30
2021/11/28 01:35:45;;;;;;;113.95;89.82;;;21.10;49.80;;;;;;4756373;55;21445;-33
2021/11/28 01:40:48;;;;;;;112.95;88.62;;;21.20;49.70;;;;;;4776351;55;21589;-34
2021/11/28 01:45:52;;;;;;;112.75;86.50;;;21.10;49.70;;;;;;4779651;55;21526;-31
2021/11/28 01:50:53;;;;;;;116.53;90.70;;;21.10;49.70;;;;;;4828107;55;21018;-32
2021/11/28 01:55:54;;;;;;;113.22;87.18;;;21.10;49.70;;;;;;4743654;55;21017;-22
2021/11/28 02:00:59;;;;;;;113.30;87.90;;;21.10;49.70;;;;;;4739720;59;21002;-31
2021/11/28 02:06:01;;;;;;;109.68;86.22;;;21.10;49.70;;;;;;4743323;55;21069;-25
2021/11/28 02:11:02;;;;;;;112.00;88.60;;;21.10;49.70;;;;;;4745554;55;21088;-30
2021/11/28 02:16:04;;;;;;;109.30;86.20;;;21.10;49.70;;;;;;4742424;55;21007;-29
2021/11/28 02:21:06;;;;;;;112.03;85.82;;;21.10;49.70;;;;;;4743051;55;21006;-26
2021/11/28 02:26:10;;;;;;;110.75;85.07;;;21.10;49.70;;;;;;4756060;55;21045;-26
2021/11/28 02:31:11;;;;;;;108.32;85.62;;;21.10;49.70;;;;;;4746169;55;21002;-28
2021/11/28 02:36:13;;;;;;;108.63;85.45;;;21.10;49.70;;;;;;4763937;55;22201;-28
2021/11/28 02:41:14;;;;;;;106.43;83.62;;;21.10;49.70;;;;;;4762605;55;21575;-26
2021/11/28 02:46:15;;;;;;;109.87;84.00;;;21.10;49.70;;;;;;4743073;55;21026;-28
2021/11/28 02:51:16;;;;;;;108.15;85.62;;;21.10;49.70;;;;;;4836651;55;21503;-25
2021/11/28 02:56:17;;;;;;;105.72;83.00;;;21.10;49.70;;;;;;4746429;55;21022;-24
2021/11/28 03:01:20;;;;;;;108.78;85.03;;;21.10;49.60;;;;;;4744775;55;21013;-30
2021/11/28 03:06:21;;;;;;;101.00;77.62;;;21.10;49.60;;;;;;4808154;55;21022;-29
2021/11/28 03:11:22;;;;;;;107.00;83.57;;;21.10;50.20;;;;;;4757282;55;21037;-32
2021/11/28 03:16:25;;;;;;;105.18;83.40;;;21.10;49.60;;;;;;4740212;55;21507;-28
2021/11/28 03:21:34;;;;;;;107.18;82.75;;;21.10;49.60;;;;;;4759370;55;21116;-28
2021/11/28 03:26:40;;;;;;;103.00;81.40;;;21.10;49.60;;;;;;4759892;55;20993;-34
2021/11/28 03:31:45;;;;;;;102.10;80.85;;;21.10;49.60;;;;;;4739323;59;21013;-32
2021/11/28 03:36:55;;;;;;;96.00;76.80;;;21.10;49.60;;;;;;4777491;55;21069;-23
2021/11/28 03:42:05;;;;;;;97.30;76.47;;;21.10;49.60;;;;;;4739105;55;21006;-28
2021/11/28 03:47:06;;;;;;;101.72;79.28;;;21.10;49.60;;;;;;4775770;55;20973;-25
2021/11/28 03:52:07;;;;;;;95.62;77.32;;;21.10;49.50;;;;;;4739361;59;21471;-27
2021/11/28 03:57:07;;;;;;;100.68;77.10;;;21.20;49.60;;;;;;4747379;55;21089;-29
2021/11/28 04:02:09;;;;;;;101.50;78.47;;;21.10;49.50;;;;;;4739506;59;21081;-29
2021/11/28 04:07:10;;;;;;;98.37;76.47;;;21.10;49.60;;;;;;4751086;55;21076;-28
2021/11/28 04:12:11;;;;;;;97.85;77.07;;;21.10;49.60;;;;;;4742469;55;21805;-31
2021/11/28 04:17:12;;;;;;;96.53;75.47;;;21.10;49.60;;;;;;4738395;59;21556;-31
2021/11/28 04:22:13;;;;;;;95.25;76.03;;;21.10;49.60;;;;;;4745498;55;21078;-28
2021/11/28 04:27:14;;;;;;;98.18;76.78;;;21.10;49.50;;;;;;4779969;55;21002;-31
2021/11/28 04:32:16;;;;;;;90.70;72.72;;;21.10;49.50;;;;;;4748210;55;21049;-22
2021/11/28 04:37:17;;;;;;;94.00;73.12;;;21.10;49.50;;;;;;4778241;55;21033;-27
2021/11/28 04:42:17;;;;;;;93.32;73.62;;;21.10;49.50;;;;;;4740705;55;21057;-30
2021/11/28 04:47:19;;;;;;;95.00;74.43;;;21.10;49.40;;;;;;4752540;55;21017;-29
2021/11/28 04:52:20;;;;;;;94.65;74.70;;;21.10;49.50;;;;;;4786109;55;21127;-29
2021/11/28 04:57:20;;;;;;;93.12;71.40;;;21.10;49.50;;;;;;4767290;55;21149;-32
2021/11/28 05:02:21;;;;;;;91.50;71.90;;;21.10;49.50;;;;;;4752452;55;21113;-29
2021/11/28 05:07:22;;;;;;;92.03;72.07;;;21.10;49.50;;;;;;4750329;55;21499;-29
2021/11/28 05:12:23;;;;;;;88.45;71.22;;;21.10;49.50;;;;;;4737960;57;21038;-29
2021/11/28 05:17:24;;;;;;;89.40;69.15;;;21.10;49.50;;;;;;4745192;55;21506;-27
2021/11/28 05:22:26;;;;;;;89.15;70.00;;;21.10;49.50;;;;;;4778777;55;21049;-29
2021/11/28 05:27:27;;;;;;;87.05;67.85;;;21.10;49.50;;;;;;4798826;55;21556;-28
2021/11/28 05:32:27;;;;;;;88.53;69.25;;;21.10;49.40;;;;;;4756359;55;21331;-30
2021/11/28 05:37:28;;;;;;;90.03;71.10;;;21.10;49.50;;;;;;4749527;55;21026;-30
2021/11/28 05:42:29;;;;;;;88.97;71.45;;;21.10;49.40;;;;;;4741262;55;21026;-30
2021/11/28 05:47:31;;;;;;;85.32;66.55;;;21.10;49.50;;;;;;4755757;55;21092;-31
2021/11/28 05:52:32;;;;;;;86.25;69.90;;;21.10;49.40;;;;;;4749902;55;21034;-32
2021/11/28 05:57:33;;;;;;;84.68;66.18;;;21.10;49.40;;;;;;4741953;55;21124;-32
2021/11/28 06:02:36;;;;;;;85.30;67.37;;;21.10;49.40;;;;;;4758204;55;20994;-28
2021/11/28 06:07:38;;;;;;;88.07;68.55;;;21.10;49.40;;;;;;4746368;55;21630;-27
2021/11/28 06:12:39;;;;;;;85.82;67.65;;;21.10;49.30;;;;;;4737924;59;21535;-30
2021/11/28 06:17:40;;;;;;;86.82;68.15;;;21.10;49.40;;;;;;4754983;55;21057;-29
2021/11/28 06:22:41;;;;;;;82.00;65.07;;;21.10;49.30;;;;;;4775444;55;21017;-24
2021/11/28 06:27:41;;;;;;;85.07;66.70;;;21.10;49.30;;;;;;4750273;55;21104;-29
2021/11/28 06:32:42;;;;;;;86.35;67.10;;;21.10;49.30;;;;;;4751703;55;21132;-30
2021/11/28 06:37:46;;;;;;;86.53;67.97;;;21.10;49.30;;;;;;4750395;55;21531;-31
2021/11/28 06:42:47;;;;;;;83.62;64.85;;;21.10;49.30;;;;;;4747498;55;21608;-29
2021/11/28 06:47:48;;;;;;;80.47;63.42;;;21.10;49.20;;;;;;4748172;55;21057;-34
2021/11/28 06:52:49;;;;;;;84.13;66.35;;;21.10;49.20;;;;;;4768113;55;21005;-26
2021/11/28 06:57:49;;;;;;;80.38;63.08;;;21.10;49.30;;;;;;4738654;59;21116;-27
2021/11/28 07:02:50;;;;;;;82.18;65.43;;;21.10;49.80;;;;;;4739524;55;21088;-21
2021/11/28 07:07:51;;;;;;;86.12;67.12;;;21.10;49.20;;;;;;4738875;57;21547;-28
2021/11/28 07:12:52;;;;;;;79.20;62.58;;;21.10;49.20;;;;;;4758138;55;21109;-26
2021/11/28 07:17:53;;;;;;;79.00;62.67;;;21.10;49.20;;;;;;4781789;55;21468;-26
2021/11/28 07:22:54;;;;;;;83.32;65.18;;;21.10;49.20;;;;;;4753157;55;21014;-25
2021/11/28 07:27:56;;;;;;;79.60;63.20;;;21.10;49.10;;;;;;4738433;59;21108;-28
2021/11/28 07:32:57;;;;;;;81.68;64.57;;;21.10;49.10;;;;;;4756496;55;21500;-29
2021/11/28 07:37:58;;;;;;;82.22;64.20;;;21.10;49.10;;;;;;4770915;55;21037;-27
2021/11/28 07:42:59;;;;;;;81.93;63.75;;;21.10;49.10;;;;;;4764365;55;21005;-29
2021/11/28 07:48:00;;;;;;;81.28;63.90;;;21.10;49.20;;;;;;4739561;59;21017;-30
2021/11/28 07:53:01;;;;;;;76.72;60.40;;;21.10;49.10;;;;;;4738558;59;21005;-27
2021/11/28 07:58:04;;;;;;;79.10;62.60;;;21.10;49.10;;;;;;4757023;55;21069;-30
2021/11/28 08:03:04;;;;;;;79.22;64.43;;;21.10;49.10;;;;;;4739262;59;20994;-29
2021/11/28 08:08:06;;;;;;;79.18;62.75;;;21.10;49.10;;;;;;4765018;55;21519;-30
2021/11/28 08:13:07;;;;;;;79.62;62.33;;;21.10;49.10;;;;;;4737758;59;21519;-28
2021/11/28 08:18:08;;;;;;;78.68;61.20;;;21.10;49.10;;;;;;4738937;59;21070;-28
2021/11/28 08:23:09;;;;;;;77.07;63.20;;;21.10;49.10;;;;;;4773337;55;21499;-24
2021/11/28 08:28:10;;;;;;;80.05;62.45;;;21.10;49.10;;;;;;4790730;55;21586;-30
2021/11/28 08:33:11;;;;;;;77.32;61.35;;;21.10;49.10;;;;;;4739433;59;21077;-28
2021/11/28 08:38:12;;;;;;;83.95;64.97;;;21.10;49.10;;;;;;4773203;55;21468;-36
2021/11/28 08:43:12;;;;;;;84.22;64.12;;;21.10;49.10;;;;;;4743379;55;21021;-30
2021/11/28 08:48:13;;;;;;;84.05;66.18;;;21.10;49.10;;;;;;4739325;59;21002;-32
2021/11/28 08:53:14;;;;;;;82.60;66.62;;;21.10;49.00;;;;;;4738712;59;21021;-28
2021/11/28 08:58:16;;;;;;;80.20;64.20;;;21.10;49.10;;;;;;4750802;55;21005;-26
2021/11/28 09:03:17;;;;;;;83.75;66.35;;;21.20;49.80;;;;;;4750732;55;21543;-31
2021/11/28 09:08:17;;;;;;;83.37;66.22;;;21.10;49.10;;;;;;4767837;55;21009;-29
2021/11/28 09:13:19;;;;;;;84.47;67.60;;;21.10;49.10;;;;;;4738362;55;21053;-28
2021/11/28 09:18:24;;;;;;;87.37;68.57;;;21.20;49.10;;;;;;4776123;55;21590;-31
2021/11/28 09:28:45;;;;;;;87.20;68.55;;;21.20;49.20;;;;;;4739081;55;21111;-31
2021/11/28 09:33:47;;;;;;;86.37;66.45;;;21.20;49.20;;;;;;4763645;55;21041;-27
2021/11/28 09:38:47;;;;;;;86.72;68.65;;;21.10;49.20;;;;;;4754973;55;21511;-30
2021/11/28 09:43:53;;;;;;;83.72;67.25;;;21.10;49.90;;;;;;4772213;55;21070;-32
2021/11/28 09:48:59;;;;;;;85.68;70.18;;;21.10;49.20;;;;;;4763445;55;21074;-29
2021/11/28 09:54:04;;;;;;;85.28;66.93;;;21.10;49.30;;;;;;4743364;55;21578;-30
2021/11/28 09:59:06;;;;;;;84.20;68.85;;;21.20;49.30;;;;;;4743690;55;21467;-30
2021/11/28 10:04:07;;;;;;;84.57;68.45;;;21.10;49.30;;;;;;4745193;55;21534;-30
2021/11/28 10:09:08;;;;;;;86.75;68.35;;;21.10;49.30;;;;;;4766988;55;21049;-29
2021/11/28 10:14:14;;;;;;;82.60;66.95;;;21.10;49.30;;;;;;4749060;55;21097;-33
2021/11/28 10:19:14;;;;;;;83.85;66.55;;;21.10;49.30;;;;;;4738855;59;21483;-22
2021/11/28 10:24:18;;;;;;;88.47;71.45;;;21.20;49.40;;;;;;4750106;55;21041;-30
2021/11/28 10:29:20;;;;;;;86.12;69.32;;;21.10;49.30;;;;;;4746941;55;21041;-27
2021/11/28 10:34:29;;;;;;;89.45;70.50;;;21.20;49.40;;;;;;4772018;55;21037;-31
2021/11/28 10:39:58;;;;;;;86.57;69.30;;;21.20;49.40;;;;;;4739017;59;21009;-29
2021/11/28 10:45:22;;;;;;;83.15;68.03;;;21.10;49.40;;;;;;4754171;55;21607;-31
2021/11/28 10:50:31;;;;;;;88.28;70.40;;;21.10;49.40;;;;;;4755493;55;21624;-29
2021/11/28 10:55:36;;;;;;;82.80;67.72;;;21.10;49.40;;;;;;4749724;55;21038;-31
2021/11/28 11:01:00;;;;;;;88.72;70.97;;;21.10;49.50;;;;;;4743772;55;20993;-27
2021/11/28 11:06:24;;;;;;;88.15;72.47;;;21.10;49.50;;;;;;4739842;55;21069;-30
2021/11/28 11:11:24;;;;;;;87.57;71.05;;;21.20;49.50;;;;;;4757286;55;21543;-30
2021/11/28 11:16:40;;;;;;;89.05;71.85;;;21.20;49.60;;;;;;4756666;55;21013;-30
2021/11/28 11:22:45;;;;;;;89.72;72.45;;;21.20;49.60;;;;;;4743187;55;21001;-41
2021/11/28 11:27:48;;;;;;;87.45;71.22;;;21.20;49.60;;;;;;4741223;55;21069;-29
2021/11/28 11:32:54;;;;;;;89.80;71.12;;;21.20;49.50;;;;;;4746709;55;21555;-26
2021/11/28 11:38:04;;;;;;;91.65;72.80;;;21.20;49.60;;;;;;4747005;55;21021;-30
2021/11/28 11:43:05;;;;;;;89.57;73.10;;;21.20;49.60;;;;;;4739029;59;20981;-31
2021/11/28 11:48:08;;;;;;;91.20;74.28;;;21.20;49.60;;;;;;4738710;59;21013;-29
2021/11/28 11:53:08;;;;;;;91.25;73.85;;;21.20;49.60;;;;;;4758695;55;21128;-29
2021/11/28 11:58:38;;;;;;;89.22;72.47;;;21.20;49.60;;;;;;4746977;55;21069;-29
2021/11/28 12:03:51;;;;;;;92.47;76.65;;;21.20;49.60;;;;;;4755175;55;21551;-29
2021/11/28 12:08:54;;;;;;;93.55;76.75;;;21.20;49.70;;;;;;4768107;55;21480;-27
2021/11/28 12:13:57;;;;;;;93.68;75.50;;;21.20;49.70;;;;;;4795241;55;21006;-28
2021/11/28 12:18:58;;;;;;;95.22;77.55;;;21.20;49.70;;;;;;4763479;55;21065;-32
2021/11/28 12:24:28;;;;;;;94.15;75.45;;;21.20;49.70;;;;;;4754406;55;21013;-33
2021/11/28 12:29:42;;;;;;;94.30;77.65;;;21.20;49.70;;;;;;4749339;55;21495;-31
2021/11/28 12:34:54;;;;;;;93.18;75.70;;;21.20;49.70;;;;;;4739184;55;21002;-26
2021/11/28 12:40:18;;;;;;;95.72;76.62;;;21.20;49.70;;;;;;4739078;59;21530;-22
2021/11/28 12:45:29;;;;;;;93.62;74.55;;;21.20;49.70;;;;;;4739978;55;20985;-26
2021/11/28 12:51:09;;;;;;;91.75;73.90;;;21.20;49.70;;;;;;4745772;55;21017;-30
2021/11/28 12:56:18;;;;;;;92.72;76.80;;;21.20;49.80;;;;;;4759463;55;21606;-28
2021/11/28 13:01:52;;;;;;;94.65;76.37;;;21.20;49.70;;;;;;4796272;55;21597;-31
2021/11/28 13:07:29;;;;;;;96.10;78.80;;;21.20;49.80;;;;;;4762926;55;20997;-31
2021/11/28 13:12:31;;;;;;;100.60;80.95;;;21.20;49.80;;;;;;4762562;55;21147;-31
2021/11/28 13:17:32;;;;;;;94.03;75.65;;;21.20;49.80;;;;;;4744358;55;21077;-27
2021/11/28 13:22:37;;;;;;;95.97;79.30;;;21.20;49.80;;;;;;4762962;55;21153;-21
2021/11/28 13:27:40;;;;;;;97.37;79.37;;;21.20;49.80;;;;;;4741277;55;21574;-30
2021/11/28 13:32:40;;;;;;;97.68;79.10;;;21.20;49.80;;;;;;4739458;59;21551;-29
2021/11/28 13:37:41;;;;;;;98.10;80.07;;;21.20;49.80;;;;;;4761353;55;21005;-32
2021/11/28 13:42:44;;;;;;;100.70;79.95;;;21.20;49.80;;;;;;4738891;59;21045;-28
2021/11/28 13:47:50;;;;;;;101.90;82.40;;;21.20;49.80;;;;;;4793627;55;20989;-30
2021/11/28 13:52:51;;;;;;;98.15;80.00;;;21.20;49.90;;;;;;4758128;55;21024;-26
2021/11/28 13:58:04;;;;;;;99.93;80.50;;;21.20;49.80;;;;;;4769654;55;21502;-23
2021/11/28 14:03:05;;;;;;;98.85;79.97;;;21.20;49.80;;;;;;4758851;55;21141;-23
2021/11/28 14:08:06;;;;;;;99.18;81.28;;;21.20;49.80;;;;;;4766915;55;21071;-34
2021/11/28 14:13:07;;;;;;;99.32;81.75;;;21.20;49.90;;;;;;4772350;55;21574;-30
2021/11/28 14:18:10;;;;;;;101.35;81.03;;;21.20;49.80;;;;;;4754683;55;21495;-31
2021/11/28 14:23:13;;;;;;;97.30;79.72;;;21.20;49.80;;;;;;4747469;55;21022;-32
2021/11/28 14:29:27;;;;;;;95.57;79.12;;;21.20;49.90;;;;;;4746283;55;21054;-35
2021/11/28 14:34:27;;;;;;;100.72;81.63;;;21.20;49.90;;;;;;4738948;59;21045;-30
2021/11/28 14:39:36;;;;;;;99.72;82.32;;;21.20;49.80;;;;;;4739756;55;21104;-28
2021/11/28 14:44:51;;;;;;;97.37;81.30;;;21.20;49.80;;;;;;4807722;55;21073;-30
2021/11/28 14:49:53;;;;;;;100.53;82.22;;;21.20;49.80;;;;;;4748608;55;21547;-31
2021/11/28 14:54:55;;;;;;;100.25;82.82;;;21.20;49.90;;;;;;4765182;55;21103;-29
2021/11/28 14:59:57;;;;;;;97.32;80.95;;;21.20;49.90;;;;;;4770197;55;21017;-25
2021/11/28 15:05:15;;;;;;;101.50;83.00;;;21.20;49.90;;;;;;4739570;57;21518;-31
2021/11/28 15:10:23;;;;;;;97.50;79.53;;;21.20;49.90;;;;;;4761488;55;21050;-32
2021/11/28 15:15:24;;;;;;;102.62;83.75;;;21.20;49.90;;;;;;4758674;55;22090;-29
2021/11/28 15:20:26;;;;;;;102.65;83.32;;;21.20;49.90;;;;;;4739273;59;21979;-24
2021/11/28 15:25:30;;;;;;;99.47;83.25;;;21.20;49.90;;;;;;4754945;55;21518;-33
2021/11/28 15:30:32;;;;;;;98.37;82.35;;;21.20;49.90;;;;;;4760072;55;21491;-30
2021/11/28 15:35:34;;;;;;;97.60;80.35;;;21.20;49.90;;;;;;4756110;55;21026;-31
2021/11/28 15:40:37;;;;;;;101.55;84.43;;;21.20;50.00;;;;;;4744440;55;21673;-31
2021/11/28 15:45:38;;;;;;;102.97;84.15;;;21.20;49.90;;;;;;4755271;55;21461;-32
2021/11/28 15:50:39;;;;;;;102.60;82.85;;;21.20;50.00;;;;;;4742101;55;20993;-25
2021/11/28 15:55:41;;;;;;;104.60;83.53;;;21.20;50.00;;;;;;4743837;55;21089;-25
2021/11/28 16:00:42;;;;;;;106.00;86.55;;;21.20;50.00;;;;;;4743405;55;21065;-33
2021/11/28 16:05:43;;;;;;;103.75;85.97;;;21.20;50.00;;;;;;4768557;55;21491;-24
2021/11/28 16:10:44;;;;;;;102.12;84.30;;;21.20;50.00;;;;;;4738161;59;21023;-23
2021/11/28 16:15:46;;;;;;;101.05;83.25;;;21.20;50.00;;;;;;4753572;55;21523;-30
2021/11/28 16:20:46;;;;;;;101.70;83.93;;;21.20;50.00;;;;;;4739216;59;21166;-20
2021/11/28 16:25:47;;;;;;;102.45;84.43;;;21.20;50.50;;;;;;4762630;55;21085;-30
2021/11/28 16:30:49;;;;;;;103.55;84.32;;;21.20;49.90;;;;;;4753958;55;21069;-30
2021/11/28 16:35:51;;;;;;;105.50;86.93;;;21.20;49.90;;;;;;4763991;55;21069;-26
2021/11/28 16:40:52;;;;;;;99.47;80.97;;;21.20;49.90;;;;;;4759979;55;21587;-28
2021/11/28 16:45:53;;;;;;;105.82;85.60;;;21.20;49.90;;;;;;4750581;55;21157;-30
2021/11/28 16:50:54;;;;;;;101.62;84.35;;;21.20;49.90;;;;;;4742164;55;21077;-25
2021/11/28 16:55:56;;;;;;;107.93;86.53;;;21.20;50.00;;;;;;4741292;55;21037;-28
2021/11/28 17:00:58;;;;;;;108.00;86.75;;;21.20;49.90;;;;;;4739368;59;21006;-29
2021/11/28 17:06:00;;;;;;;108.12;85.87;;;21.20;49.90;;;;;;4739229;59;21070;-25
2021/11/28 17:11:01;;;;;;;109.37;88.28;;;21.20;50.00;;;;;;4755280;55;21101;-29
2021/11/28 17:16:01;;;;;;;106.82;87.12;;;21.20;50.00;;;;;;4765400;55;21017;-32
2021/11/28 17:21:03;;;;;;;105.80;86.12;;;21.20;49.90;;;;;;4758590;55;21196;-32
2021/11/28 17:26:04;;;;;;;105.82;87.35;;;21.20;50.00;;;;;;4754595;55;21022;-25
2021/11/28 17:31:05;;;;;;;105.97;86.37;;;21.20;49.90;;;;;;4760657;55;21001;-34
2021/11/28 17:36:06;;;;;;;105.93;86.22;;;21.20;49.90;;;;;;4816186;55;21713;-31
2021/11/28 17:41:07;;;;;;;105.47;85.65;;;21.20;49.90;;;;;;4739898;55;21154;-28
2021/11/28 17:46:08;;;;;;;101.55;82.72;;;21.20;49.90;;;;;;4739175;59;21061;-30
2021/11/28 17:51:09;;;;;;;104.00;85.30;;;21.20;50.00;;;;;;4741951;55;21306;-31
2021/11/28 17:56:11;;;;;;;100.55;83.95;;;21.20;49.90;;;;;;4737874;59;21588;-28
2021/11/28 18:01:12;;;;;;;104.72;86.30;;;21.20;49.90;;;;;;4767926;55;21069;-31
2021/11/28 18:06:13;;;;;;;100.55;84.00;;;21.20;49.90;;;;;;4756371;55;21160;-33
2021/11/28 18:11:14;;;;;;;101.50;83.62;;;21.20;49.90;;;;;;4738752;55;21070;-29
2021/11/28 18:16:17;;;;;;;105.55;85.38;;;21.20;49.90;;;;;;4764061;55;21097;-29
2021/11/28 18:21:18;;;;;;;101.57;83.72;;;21.20;50.00;;;;;;4759925;55;21073;-22
2021/11/28 18:26:20;;;;;;;99.25;82.80;;;21.20;49.90;;;;;;4762327;55;21085;-25
2021/11/28 18:31:21;;;;;;;105.07;85.12;;;21.20;49.90;;;;;;4774965;55;20990;-26
2021/11/28 18:36:23;;;;;;;105.15;86.60;;;21.20;50.00;;;;;;4763141;55;21081;-32
2021/11/28 18:41:26;;;;;;;104.00;84.53;;;21.20;50.00;;;;;;4738640;59;21072;-27
2021/11/28 18:46:28;;;;;;;102.10;84.80;;;21.20;50.00;;;;;;4739245;59;21805;-30
2021/11/28 18:51:29;;;;;;;101.65;84.93;;;21.20;49.90;;;;;;4738185;59;21550;-29
2021/11/28 18:56:31;;;;;;;107.40;85.32;;;21.20;50.00;;;;;;4779042;55;21029;-30
2021/11/28 19:01:34;;;;;;;106.35;88.00;;;21.20;50.00;;;;;;4739008;59;21579;-31
2021/11/28 19:06:36;;;;;;;106.40;86.95;;;21.20;50.00;;;;;;4751189;55;21511;-30
2021/11/28 19:11:37;;;;;;;104.95;82.72;;;21.20;50.00;;;;;;4760707;55;21053;-30
2021/11/28 19:16:38;;;;;;;101.35;85.80;;;21.20;50.00;;;;;;4802085;55;21077;-30
2021/11/28 19:21:39;;;;;;;106.97;87.43;;;21.20;50.00;;;;;;4749222;55;21009;-27
2021/11/28 19:26:40;;;;;;;104.53;84.97;;;21.20;50.00;;;;;;4738692;59;21140;-28
2021/11/28 19:31:44;;;;;;;104.53;86.32;;;21.20;50.00;;;;;;4749442;55;21005;-28
2021/11/28 19:36:45;;;;;;;107.07;87.90;;;21.20;50.00;;;;;;4744072;55;21025;-34
2021/11/28 19:41:46;;;;;;;107.60;87.62;;;21.20;50.00;;;;;;4765311;55;21053;-25
2021/11/28 19:46:48;;;;;;;107.93;88.75;;;21.20;50.10;;;;;;4739033;59;21148;-32
2021/11/28 19:51:50;;;;;;;104.50;86.00;;;21.20;50.10;;;;;;4770419;55;20990;-31
2021/11/28 19:56:50;;;;;;;103.05;85.45;;;21.20;50.00;;;;;;4760392;55;21089;-31
2021/11/28 20:01:51;;;;;;;105.40;87.75;;;21.20;49.90;;;;;;4751476;55;21060;-32
2021/11/28 20:06:52;;;;;;;108.40;87.88;;;21.20;50.00;;;;;;4743178;55;21018;-29
2021/11/28 20:11:54;;;;;;;107.65;90.15;;;21.20;49.90;;;;;;4744497;55;21033;-34
2021/11/28 20:16:58;;;;;;;102.93;85.68;;;21.20;49.90;;;;;;4798831;55;21117;-31
2021/11/28 20:22:00;;;;;;;104.75;86.65;;;21.20;49.90;;;;;;4739249;55;21057;-30
2021/11/28 20:27:02;;;;;;;106.10;88.68;;;21.20;49.90;;;;;;4750087;55;20993;-31
2021/11/28 20:32:05;;;;;;;102.30;84.18;;;21.20;50.00;;;;;;4765070;55;21144;-27
2021/11/28 20:37:06;;;;;;;103.07;87.07;;;21.20;49.90;;;;;;4752120;55;21621;-27
2021/11/28 20:42:08;;;;;;;105.12;87.00;;;21.20;49.80;;;;;;4757677;55;20994;-26
2021/11/28 20:47:09;;;;;;;105.07;87.53;;;21.20;49.90;;;;;;4786942;55;22151;-34
2021/11/28 20:52:11;;;;;;;106.32;87.82;;;21.20;49.80;;;;;;4757429;55;21097;-37
2021/11/28 20:57:12;;;;;;;99.18;84.25;;;21.20;49.80;;;;;;4737984;59;21148;-32
2021/11/28 21:02:13;;;;;;;104.78;86.30;;;21.20;49.80;;;;;;4739376;59;21350;-32
2021/11/28 21:07:13;;;;;;;105.03;84.20;;;21.20;49.80;;;;;;4741064;55;21136;-31
2021/11/28 21:12:14;;;;;;;101.93;84.85;;;21.20;49.80;;;;;;4754416;55;21331;-29
2021/11/28 21:17:16;;;;;;;104.35;86.30;;;21.20;49.80;;;;;;4739061;55;21094;-29
2021/11/28 21:22:19;;;;;;;101.45;85.22;;;21.20;49.80;;;;;;4777473;55;21468;-29
2021/11/28 21:27:20;;;;;;;102.75;83.65;;;21.20;49.70;;;;;;4742942;55;21570;-29
2021/11/28 21:32:22;;;;;;;99.62;83.22;;;21.20;49.70;;;;;;4755419;55;21017;-32
2021/11/28 21:37:47;;;;;;;97.80;82.22;;;21.20;49.70;;;;;;4750937;55;21085;-31
2021/11/28 21:42:59;;;;;;;98.85;82.32;;;21.10;49.70;;;;;;4773603;55;22528;-28
2021/11/28 21:48:04;;;;;;;97.30;82.32;;;21.20;49.70;;;;;;4738921;59;21101;-31
2021/11/28 21:53:07;;;;;;;99.72;82.93;;;21.20;49.70;;;;;;4767822;55;21550;-26
2021/11/28 21:58:10;;;;;;;96.60;79.53;;;21.20;49.70;;;;;;4758517;55;21057;-27
2021/11/28 22:03:12;;;;;;;89.07;76.03;;;21.20;49.60;;;;;;4775213;55;21002;-29
2021/11/28 22:08:13;;;;;;;94.07;79.82;;;21.20;49.60;;;;;;4738958;59;21001;-32
2021/11/28 22:13:15;;;;;;;95.35;78.45;;;21.20;49.60;;;;;;4742253;55;21100;-29
2021/11/28 22:18:16;;;;;;;94.03;79.68;;;21.20;49.60;;;;;;4783113;55;21061;-29
2021/11/28 22:23:17;;;;;;;94.22;80.35;;;21.20;49.50;;;;;;4745582;55;20994;-29
2021/11/28 22:28:18;;;;;;;91.97;77.60;;;21.20;49.60;;;;;;4760151;55;21109;-29
2021/11/28 22:33:20;;;;;;;92.65;77.78;;;21.10;49.60;;;;;;4763062;55;21010;-30
2021/11/28 22:38:21;;;;;;;87.70;73.32;;;21.20;49.60;;;;;;4738893;59;21001;-31
2021/11/28 22:43:22;;;;;;;86.68;72.97;;;21.10;49.50;;;;;;4761283;55;21018;-29
2021/11/28 22:48:24;;;;;;;87.57;74.37;;;21.10;49.50;;;;;;4742298;55;22325;-28
2021/11/28 22:53:25;;;;;;;83.78;70.70;;;21.10;49.40;;;;;;4782101;55;21002;-27
2021/11/28 22:58:27;;;;;;;89.87;75.40;;;21.10;49.40;;;;;;4743148;55;21017;-28
2021/11/28 23:03:27;;;;;;;84.78;72.00;;;21.10;49.50;;;;;;4750231;55;21097;-27
2021/11/28 23:08:31;;;;;;;85.15;71.25;;;21.10;49.40;;;;;;4745853;55;21069;-29
2021/11/28 23:13:32;;;;;;;83.53;70.43;;;21.10;49.40;;;;;;4763455;55;21481;-30
2021/11/28 23:18:35;;;;;;;85.50;72.00;;;21.10;49.40;;;;;;4763484;55;21013;-31
2021/11/28 23:23:35;;;;;;;80.38;67.30;;;21.10;49.40;;;;;;4771156;55;20994;-33
2021/11/28 23:28:37;;;;;;;81.72;70.28;;;21.10;49.40;;;;;;4740396;55;21001;-28
2021/11/28 23:33:38;;;;;;;80.57;66.55;;;21.10;49.30;;;;;;4744629;55;21013;-29
2021/11/28 23:38:39;;;;;;;80.75;68.53;;;21.10;49.30;;;;;;4744203;55;21506;-28
2021/11/28 23:43:40;;;;;;;77.82;66.50;;;21.10;49.30;;;;;;4752289;55;21017;-28
2021/11/28 23:48:41;;;;;;;81.55;68.65;;;21.10;49.40;;;;;;4783856;55;21545;-26
2021/11/28 23:53:42;;;;;;;77.78;66.55;;;21.10;49.30;;;;;;4744554;55;21487;-30
2021/11/28 23:58:43;;;;;;;76.03;64.70;;;21.10;49.30;;;;;;4738858;59;21101;-27
